createdAt,value
2023-04-25T00:01:26.681Z,2.00
2023-04-25T00:04:31.319Z,1.52
2023-04-25T00:07:35.254Z,1.50
2023-04-25T00:10:37.937Z,1.73
2023-04-25T00:13:42.859Z,1.60
2023-04-25T00:16:46.396Z,1.90
2023-04-25T00:19:49.493Z,1.92
2023-04-25T00:22:53.841Z,2.00
2023-04-25T00:25:56.458Z,2.30
2023-04-25T00:28:59.916Z,2.27
2023-04-25T00:32:03.289Z,2.57
2023-04-25T00:35:06.988Z,2.20
2023-04-25T00:38:09.563Z,2.42
2023-04-25T00:41:13.309Z,2.30
2023-04-25T00:44:17.999Z,2.67
2023-04-25T00:47:20.800Z,2.23
2023-04-25T00:50:24.033Z,2.60
2023-04-25T00:53:28.636Z,2.53
2023-04-25T00:56:31.347Z,2.70
2023-04-25T00:59:34.626Z,2.57
2023-04-25T01:02:38.650Z,2.70
2023-04-25T01:05:43.127Z,2.70
2023-04-25T01:08:46.634Z,2.80
2023-04-25T01:11:50.692Z,2.60
2023-04-25T01:14:55.239Z,3.00
2023-04-25T01:17:59.425Z,3.03
2023-04-25T01:21:09.886Z,2.75
2023-04-25T01:24:14.395Z,2.90
2023-04-25T01:27:17.340Z,3.25
2023-04-25T01:30:20.836Z,2.93
2023-04-25T01:33:23.710Z,3.60
2023-04-25T01:36:28.118Z,3.80
2023-04-25T01:39:31.721Z,3.40
2023-04-25T01:42:37.553Z,3.80
2023-04-25T01:45:42.665Z,3.40
2023-04-25T01:48:46.930Z,3.53
2023-04-25T01:51:51.878Z,3.25
2023-04-25T01:54:55.781Z,3.58
2023-04-25T01:57:59.550Z,3.35
2023-04-25T02:01:15.258Z,3.37
2023-04-25T02:04:24.160Z,3.37
2023-04-25T02:07:28.220Z,3.20
2023-04-25T02:10:31.661Z,3.40
2023-04-25T02:13:47.575Z,3.40
2023-04-25T02:17:15.856Z,3.30
2023-04-25T02:20:18.519Z,3.57
2023-04-25T02:23:21.421Z,3.17
2023-04-25T02:26:27.218Z,3.08
2023-04-25T02:29:31.112Z,3.65
2023-04-25T02:32:35.380Z,3.20
2023-04-25T02:35:38.819Z,3.50
2023-04-25T02:38:41.648Z,2.70
2023-04-25T02:41:44.475Z,2.90
2023-04-25T02:44:47.612Z,3.00
2023-04-25T02:47:50.429Z,3.40
2023-04-25T02:50:56.120Z,2.97
2023-04-25T02:53:59.772Z,3.10
2023-04-25T02:57:03.876Z,2.53
2023-04-25T03:00:12.991Z,2.92
2023-04-25T03:03:18.739Z,2.90
2023-04-25T03:06:22.041Z,2.83
2023-04-25T03:09:24.806Z,3.13
2023-04-25T03:12:28.347Z,3.33
2023-04-25T03:15:32.314Z,3.30
2023-04-25T03:18:35.066Z,3.40
2023-04-25T03:21:38.306Z,3.33
2023-04-25T03:24:41.328Z,3.50
2023-04-25T03:27:43.994Z,3.15
2023-04-25T03:30:46.622Z,3.20
2023-04-25T03:33:50.384Z,3.27
2023-04-25T03:36:56.753Z,3.00
2023-04-25T03:39:59.485Z,3.38
2023-04-25T03:43:12.506Z,3.10
2023-04-25T03:46:20.327Z,3.22
2023-04-25T03:49:26.033Z,3.27
2023-04-25T03:52:37.765Z,3.70
2023-04-25T03:55:42.382Z,3.30
2023-04-25T03:58:46.189Z,3.15
2023-04-25T04:01:50.400Z,3.60
2023-04-25T04:04:53.385Z,3.63
2023-04-25T04:07:56.809Z,3.60
2023-04-25T04:11:00.259Z,3.38
2023-04-25T04:14:03.461Z,3.58
2023-04-25T04:17:07.089Z,3.42
2023-04-25T04:20:10.814Z,3.70
2023-04-25T04:23:16.737Z,3.73
2023-04-25T04:26:19.445Z,3.55
2023-04-25T04:29:37.768Z,3.83
2023-04-25T04:32:53.072Z,3.42
2023-04-25T04:35:57.456Z,3.90
2023-04-25T04:39:00.243Z,3.63
2023-04-25T04:42:26.455Z,4.15
2023-04-25T04:45:36.372Z,3.17
2023-04-25T04:49:09.483Z,3.42
2023-04-25T04:52:32.357Z,3.47
2023-04-25T04:55:51.378Z,3.70
2023-04-25T04:59:24.255Z,3.92
2023-04-25T05:02:41.810Z,3.60
2023-04-25T05:06:04.491Z,5.25
2023-04-25T05:09:28.013Z,4.10
2023-04-25T05:12:51.825Z,4.13
2023-04-25T05:16:00.544Z,4.57
2023-04-25T05:19:22.445Z,3.92
2023-04-25T05:22:51.141Z,4.07
2023-04-25T05:26:14.813Z,4.17
2023-04-25T05:29:29.343Z,4.07
2023-04-25T05:32:51.631Z,4.30
2023-04-25T05:35:54.872Z,3.95
2023-04-25T05:38:59.112Z,3.90
2023-04-25T05:42:22.508Z,4.50
2023-04-25T05:45:52.527Z,4.50
2023-04-25T05:49:06.469Z,5.03
2023-04-25T05:52:18.363Z,5.88
2023-04-25T05:55:42.398Z,6.38
2023-04-25T05:58:56.789Z,5.80
2023-04-25T06:02:01.897Z,5.80
2023-04-25T06:05:08.161Z,6.05
2023-04-25T06:08:12.409Z,6.28
2023-04-25T06:11:19.995Z,6.40
2023-04-25T06:14:23.952Z,6.40
2023-04-25T06:17:28.127Z,6.83
2023-04-25T06:20:34.374Z,6.72
2023-04-25T06:23:38.594Z,5.93
2023-04-25T06:26:43.705Z,6.53
2023-04-25T06:29:47.953Z,6.63
2023-04-25T06:32:51.168Z,6.63
2023-04-25T06:35:54.112Z,7.00
2023-04-25T06:39:01.033Z,7.38
2023-04-25T06:42:03.880Z,7.03
2023-04-25T06:45:20.106Z,6.27
2023-04-25T06:48:23.287Z,6.97
2023-04-25T06:51:30.248Z,8.82
2023-04-25T06:54:33.294Z,7.85
2023-04-25T06:57:42.671Z,6.25
2023-04-25T07:01:05.975Z,5.73
2023-04-25T07:04:10.346Z,6.03
2023-04-25T07:07:19.530Z,5.90
2023-04-25T07:10:38.541Z,5.80
2023-04-25T07:13:52.915Z,6.28
2023-04-25T07:17:00.674Z,6.10
2023-04-25T07:20:10.849Z,6.20
2023-04-25T07:23:14.122Z,5.95
2023-04-25T07:26:26.972Z,6.20
2023-04-25T07:29:51.449Z,6.15
2023-04-25T07:32:54.393Z,5.70
2023-04-25T07:35:57.985Z,5.20
2023-04-25T07:39:00.891Z,5.10
2023-04-25T07:42:04.887Z,5.45
2023-04-25T07:45:08.771Z,5.15
2023-04-25T07:48:15.392Z,6.37
2023-04-25T07:51:21.007Z,4.80
2023-04-25T07:54:26.602Z,4.90
2023-04-25T07:57:35.970Z,4.72
2023-04-25T08:00:41.301Z,5.25
2023-04-25T08:04:19.025Z,4.33
2023-04-25T08:07:44.772Z,4.50
2023-04-25T08:10:49.448Z,4.20
2023-04-25T08:13:54.038Z,4.25
2023-04-25T08:16:58.328Z,4.30
2023-04-25T08:20:06.915Z,3.80
2023-04-25T08:23:11.968Z,4.90
2023-04-25T08:26:40.323Z,3.40
2023-04-25T08:29:44.930Z,3.25
2023-04-25T08:32:56.178Z,3.25
2023-04-25T08:36:38.728Z,4.20
2023-04-25T08:39:55.929Z,3.70
2023-04-25T08:43:10.729Z,3.15
2023-04-25T08:46:22.357Z,3.80
2023-04-25T08:49:51.858Z,3.75
2023-04-25T08:52:56.389Z,4.73
2023-04-25T08:56:02.875Z,4.13
2023-04-25T08:59:11.622Z,3.97
2023-04-25T09:02:17.910Z,4.25
2023-04-25T09:05:24.563Z,4.18
2023-04-25T09:08:29.695Z,3.80
2023-04-25T09:11:34.328Z,4.30
2023-04-25T09:14:40.679Z,4.50
2023-04-25T09:18:02.584Z,4.28
2023-04-25T09:21:14.921Z,4.53
2023-04-25T09:24:49.737Z,3.90
2023-04-25T09:27:57.140Z,5.10
2023-04-25T09:31:06.912Z,3.40
2023-04-25T09:34:18.601Z,3.55
2023-04-25T09:37:45.420Z,6.72
2023-04-25T09:41:18.401Z,3.20
2023-04-25T09:44:34.039Z,3.20
2023-04-25T09:47:45.102Z,2.75
2023-04-25T09:51:09.387Z,3.00
2023-04-25T09:54:12.674Z,4.07
2023-04-25T09:57:26.051Z,2.00
2023-04-25T10:00:33.470Z,1.93
2023-04-25T10:03:53.201Z,2.30
2023-04-25T10:07:29.453Z,2.13
2023-04-25T10:10:37.172Z,2.42
2023-04-25T10:13:40.968Z,2.30
2023-04-25T10:16:46.282Z,1.80
2023-04-25T10:19:50.537Z,1.45
2023-04-25T10:22:57.359Z,1.70
2023-04-25T10:26:01.167Z,1.33
2023-04-25T10:29:04.755Z,1.10
2023-04-25T10:32:15.216Z,0.80
2023-04-25T10:35:29.246Z,1.52
2023-04-25T10:38:32.581Z,1.00
2023-04-25T10:41:59.064Z,1.30
2023-04-25T10:45:06.824Z,0.83
2023-04-25T10:48:30.111Z,1.27
2023-04-25T10:51:54.391Z,0.80
2023-04-25T10:54:59.484Z,0.98
2023-04-25T10:58:02.942Z,0.70
2023-04-25T11:01:08.627Z,0.70
2023-04-25T11:04:29.468Z,0.77
2023-04-25T11:07:36.128Z,0.98
2023-04-25T11:10:46.240Z,1.08
2023-04-25T11:13:52.322Z,0.22
2023-04-25T11:16:58.937Z,0.33
2023-04-25T11:20:08.507Z,0.57
2023-04-25T11:23:12.276Z,0.57
2023-04-25T11:26:16.141Z,0.32
2023-04-25T11:29:19.581Z,0.40
2023-04-25T11:32:23.298Z,0.57
2023-04-25T11:35:28.453Z,0.60
2023-04-25T11:38:31.934Z,0.55
2023-04-25T11:41:39.171Z,0.63
2023-04-25T11:44:42.742Z,0.50
2023-04-25T11:47:45.659Z,0.40
2023-04-25T11:50:48.845Z,0.50
2023-04-25T11:53:52.424Z,0.70
2023-04-25T11:56:56.205Z,0.40
2023-04-25T12:04:21.009Z,0.53
2023-04-25T12:07:32.700Z,0.70
2023-04-25T12:10:46.204Z,1.23
2023-04-25T12:13:55.121Z,0.60
2023-04-25T12:17:02.444Z,1.05
2023-04-25T12:20:27.294Z,1.13
2023-04-25T12:23:31.414Z,1.10
2023-04-25T12:26:51.368Z,1.10
2023-04-25T12:29:56.935Z,1.30
2023-04-25T12:32:59.759Z,0.93
2023-04-25T12:36:10.358Z,1.20
2023-04-25T12:39:22.801Z,1.70
2023-04-25T12:42:25.366Z,1.50
2023-04-25T12:45:27.958Z,1.52
2023-04-25T12:48:31.498Z,1.50
2023-04-25T12:51:38.106Z,1.30
2023-04-25T12:54:41.198Z,1.33
2023-04-25T12:57:44.054Z,1.83
2023-04-25T13:00:47.493Z,1.52
2023-04-25T13:03:52.227Z,1.60
2023-04-25T13:06:55.374Z,1.23
2023-04-25T13:09:58.077Z,1.40
2023-04-25T13:13:02.217Z,1.75
2023-04-25T13:16:05.789Z,1.55
2023-04-25T13:19:12.059Z,1.40
2023-04-25T13:22:17.810Z,1.60
2023-04-25T13:25:20.693Z,1.77
2023-04-25T13:28:27.500Z,2.15
2023-04-25T13:31:30.390Z,1.58
2023-04-25T13:34:33.920Z,1.90
2023-04-25T13:37:38.240Z,1.60
2023-04-25T13:40:41.286Z,2.20
2023-04-25T13:43:44.489Z,1.65
2023-04-25T13:46:47.899Z,1.88
2023-04-25T13:49:51.315Z,1.63
2023-04-25T13:52:53.837Z,1.57
2023-04-25T13:55:56.596Z,1.67
2023-04-25T13:58:59.206Z,1.58
2023-04-25T14:02:01.974Z,1.85
2023-04-25T14:05:06.247Z,2.38
2023-04-25T14:08:10.986Z,2.00
2023-04-25T14:11:14.563Z,1.80
2023-04-25T14:14:17.282Z,1.90
2023-04-25T14:17:20.957Z,2.13
2023-04-25T14:20:25.034Z,1.90
2023-04-25T14:23:27.720Z,1.93
2023-04-25T14:26:30.273Z,1.90
2023-04-25T14:29:33.598Z,1.73
2023-04-25T14:32:37.141Z,1.15
2023-04-25T14:35:39.914Z,2.00
2023-04-25T14:38:44.053Z,1.87
2023-04-25T14:41:47.024Z,1.70
2023-04-25T14:44:50.993Z,2.05
2023-04-25T14:47:54.716Z,1.88
2023-04-25T14:50:57.733Z,1.73
2023-04-25T14:54:01.262Z,1.17
2023-04-25T14:57:03.954Z,1.87
2023-04-25T15:00:10.357Z,1.88
2023-04-25T15:03:14.505Z,1.25
2023-04-25T15:06:17.524Z,2.00
2023-04-25T15:09:20.501Z,1.70
2023-04-25T15:12:24.168Z,2.27
2023-04-25T15:15:27.710Z,1.70
2023-04-25T15:18:30.337Z,1.50
2023-04-25T15:21:33.164Z,1.40
2023-04-25T15:24:36.375Z,1.17
2023-04-25T15:27:45.122Z,1.30
2023-04-25T15:30:48.966Z,1.50
2023-04-25T15:33:52.011Z,1.20
2023-04-25T15:36:55.750Z,1.35
2023-04-25T15:40:07.419Z,1.37
2023-04-25T15:43:15.759Z,1.30
2023-04-25T15:46:18.521Z,1.30
2023-04-25T15:49:22.836Z,1.40
2023-04-25T15:52:26.210Z,1.80
2023-04-25T15:55:29.267Z,2.20
2023-04-25T15:58:31.945Z,2.27
2023-04-25T16:01:35.174Z,2.67
2023-04-25T16:04:39.603Z,2.63
2023-04-25T16:07:43.793Z,2.30
2023-04-25T16:10:46.489Z,2.70
2023-04-25T16:13:49.927Z,2.47
2023-04-25T16:16:53.982Z,2.22
2023-04-25T16:19:58.110Z,2.70
2023-04-25T16:23:01.375Z,2.13
2023-04-25T16:26:04.689Z,2.50
2023-04-25T16:29:08.265Z,2.63
2023-04-25T16:32:11.233Z,2.70
2023-04-25T16:35:14.630Z,2.67
2023-04-25T16:38:18.189Z,2.70
2023-04-25T16:41:21.243Z,2.83
2023-04-25T16:44:24.060Z,2.70
2023-04-25T16:47:26.631Z,3.15
2023-04-25T16:50:30.073Z,3.08
2023-04-25T16:53:32.753Z,2.75
2023-04-25T16:56:35.825Z,3.20
2023-04-25T16:59:39.671Z,2.90
2023-04-25T17:02:43.363Z,3.20
2023-04-25T17:05:46.210Z,3.10
2023-04-25T17:08:49.122Z,2.83
2023-04-25T17:11:51.961Z,3.30
2023-04-25T17:14:54.863Z,3.20
2023-04-25T17:17:57.510Z,3.22
2023-04-25T17:21:00.381Z,3.60
2023-04-25T17:24:06.141Z,2.97
2023-04-25T17:27:08.775Z,3.37
2023-04-25T17:30:12.591Z,3.40
2023-04-25T17:33:16.117Z,3.30
2023-04-25T17:36:19.293Z,3.20
2023-04-25T17:39:22.105Z,3.10
2023-04-25T17:42:24.872Z,3.13
2023-04-25T17:45:28.917Z,2.83
2023-04-25T17:48:31.867Z,2.90
2023-04-25T17:51:34.582Z,2.70
2023-04-25T17:54:37.388Z,2.72
2023-04-25T17:57:40.710Z,3.40
2023-04-25T18:00:43.429Z,3.10
2023-04-25T18:03:49.261Z,3.05
2023-04-25T18:06:52.800Z,2.92
2023-04-25T18:09:56.212Z,3.40
2023-04-25T18:12:59.739Z,3.20
2023-04-25T18:16:02.347Z,3.40
2023-04-25T18:19:11.570Z,3.58
2023-04-25T18:22:14.898Z,3.40
2023-04-25T18:25:18.343Z,3.70
2023-04-25T18:28:22.344Z,3.50
2023-04-25T18:31:26.548Z,3.80
2023-04-25T18:34:30.314Z,3.90
2023-04-25T18:37:33.829Z,3.40
2023-04-25T18:40:46.989Z,3.20
2023-04-25T18:44:01.184Z,3.47
2023-04-25T18:47:04.365Z,3.30
2023-04-25T18:50:08.322Z,3.33
2023-04-25T18:53:11.376Z,3.40
2023-04-25T18:56:15.475Z,3.25
2023-04-25T18:59:18.846Z,3.43
2023-04-25T19:07:49.325Z,3.20
2023-04-25T19:10:53.712Z,3.15
2023-04-25T19:13:57.249Z,3.22
2023-04-25T19:17:00.358Z,3.10
2023-04-25T19:20:04.244Z,3.40
2023-04-25T19:23:07.177Z,3.47
2023-04-25T19:26:10.918Z,3.28
2023-04-25T19:29:14.950Z,3.28
2023-04-25T19:32:18.312Z,3.30
2023-04-25T19:35:20.927Z,3.30
2023-04-25T19:38:23.566Z,3.10
2023-04-25T19:41:26.903Z,3.50
2023-04-25T19:44:30.874Z,3.88
2023-04-25T19:47:33.631Z,3.60
2023-04-25T19:50:37.846Z,3.40
2023-04-25T19:53:40.410Z,3.35
2023-04-25T19:56:43.848Z,3.17
2023-04-25T19:59:48.212Z,3.10
2023-04-25T20:02:51.947Z,3.17
2023-04-25T20:05:54.925Z,3.20
2023-04-25T20:08:59.213Z,3.05
2023-04-25T20:12:04.270Z,3.20
2023-04-25T20:15:11.859Z,3.20
2023-04-25T20:18:15.370Z,3.00
2023-04-25T20:21:19.280Z,3.05
2023-04-25T20:24:21.981Z,2.90
2023-04-25T20:27:24.570Z,3.33
2023-04-25T20:30:28.724Z,2.72
2023-04-25T20:33:31.375Z,3.20
2023-04-25T20:36:33.958Z,3.30
2023-04-25T20:39:37.477Z,3.03
2023-04-25T20:42:40.775Z,3.45
2023-04-25T20:45:43.369Z,3.38
2023-04-25T20:48:46.958Z,3.30
2023-04-25T20:51:50.681Z,3.13
2023-04-25T20:54:54.248Z,3.80
2023-04-25T20:57:57.801Z,3.20
2023-04-25T21:01:01.382Z,3.47
2023-04-25T21:04:06.277Z,3.17
2023-04-25T21:07:09.054Z,3.15
2023-04-25T21:10:12.966Z,3.35
2023-04-25T21:13:15.778Z,3.03
2023-04-25T21:16:18.656Z,3.17
2023-04-25T21:19:22.558Z,2.80
2023-04-25T21:22:25.721Z,3.30
2023-04-25T21:25:31.764Z,2.83
2023-04-25T21:28:36.042Z,2.78
2023-04-25T21:31:39.640Z,2.80
2023-04-25T21:34:43.131Z,2.93
2023-04-25T21:37:46.708Z,3.20
2023-04-25T21:40:50.441Z,3.10
2023-04-25T21:43:53.138Z,3.30
2023-04-25T21:46:55.851Z,3.33
2023-04-25T21:49:59.354Z,3.00
2023-04-25T21:53:02.436Z,3.05
2023-04-25T21:56:05.281Z,3.20
2023-04-25T21:59:07.903Z,3.55
2023-04-25T22:02:11.287Z,3.17
2023-04-25T22:05:14.799Z,3.47
2023-04-25T22:08:17.555Z,3.38
2023-04-25T22:11:24.324Z,3.10
2023-04-25T22:14:28.299Z,3.10
2023-04-25T22:17:31.636Z,3.65
2023-04-25T22:20:34.641Z,3.80
2023-04-25T22:23:37.457Z,3.60
2023-04-25T22:26:40.057Z,3.70
2023-04-25T22:29:42.821Z,3.78
2023-04-25T22:32:45.457Z,3.60
2023-04-25T22:35:51.445Z,3.60
2023-04-25T22:38:54.668Z,3.90
2023-04-25T22:41:58.383Z,4.05
2023-04-25T22:45:02.051Z,4.18
2023-04-25T22:48:05.059Z,4.03
2023-04-25T22:51:07.747Z,3.90
2023-04-25T22:54:10.524Z,4.32
2023-04-25T22:57:13.049Z,3.85
2023-04-25T23:00:16.763Z,4.47
2023-04-25T23:03:20.248Z,4.43
2023-04-25T23:06:24.800Z,3.90
2023-04-25T23:09:27.708Z,4.35
2023-04-25T23:12:30.372Z,4.78
2023-04-25T23:15:33.358Z,4.18
2023-04-25T23:18:36.778Z,4.18
2023-04-25T23:21:39.488Z,4.43
2023-04-25T23:24:42.244Z,4.50
2023-04-25T23:27:46.306Z,4.50
2023-04-25T23:30:53.463Z,4.78
2023-04-25T23:33:56.157Z,4.57
2023-04-25T23:37:01.304Z,4.57
2023-04-25T23:40:12.653Z,5.03
2023-04-25T23:43:16.400Z,5.00
2023-04-25T23:46:19.329Z,4.78
2023-04-25T23:49:22.813Z,5.18
2023-04-25T23:52:27.755Z,4.93
2023-04-25T23:55:31.295Z,4.80
2023-04-25T23:58:33.975Z,5.05
